createdAt,value
2019-06-10T00:01:42.573Z,99.90
2019-06-10T00:04:12.728Z,99.90
2019-06-10T00:06:43.894Z,99.90
2019-06-10T00:09:13.858Z,99.90
2019-06-10T00:11:44.018Z,99.90
2019-06-10T00:14:14.017Z,99.90
2019-06-10T00:16:44.014Z,99.90
2019-06-10T00:19:14.023Z,99.90
2019-06-10T00:21:44.016Z,99.90
2019-06-10T00:24:14.056Z,99.90
2019-06-10T00:26:44.145Z,99.90
2019-06-10T00:29:14.056Z,99.90
2019-06-10T00:31:44.137Z,99.90
2019-06-10T00:34:14.135Z,99.90
2019-06-10T00:36:44.096Z,99.90
2019-06-10T00:39:14.017Z,99.90
2019-06-10T00:41:44.096Z,99.90
2019-06-10T00:44:15.095Z,99.90
2019-06-10T00:46:45.215Z,99.90
2019-06-10T00:49:15.153Z,99.90
2019-06-10T00:51:45.223Z,99.90
2019-06-10T00:54:15.911Z,99.90
2019-06-10T00:56:46.173Z,99.90
2019-06-10T00:59:16.095Z,99.90
2019-06-10T01:01:46.097Z,99.90
2019-06-10T01:04:16.589Z,99.90
2019-06-10T01:06:47.735Z,99.90
2019-06-10T01:09:17.814Z,99.90
2019-06-10T01:11:47.984Z,99.90
2019-06-10T01:14:18.019Z,99.90
2019-06-10T01:16:50.496Z,99.90
2019-06-10T01:19:21.642Z,99.90
2019-06-10T01:21:51.414Z,99.90
2019-06-10T01:24:22.333Z,99.90
2019-06-10T01:26:52.496Z,99.90
2019-06-10T01:29:22.573Z,99.90
2019-06-10T01:31:52.577Z,99.90
2019-06-10T01:34:22.625Z,99.90
2019-06-10T01:36:52.655Z,99.90
2019-06-10T01:39:22.778Z,99.90
2019-06-10T01:41:52.697Z,99.90
2019-06-10T01:44:22.695Z,99.90
2019-06-10T01:46:52.737Z,99.90
2019-06-10T01:49:22.734Z,99.90
2019-06-10T01:51:52.814Z,99.90
2019-06-10T01:54:22.774Z,99.90
2019-06-10T01:56:52.775Z,99.90
2019-06-10T01:59:22.696Z,99.90
2019-06-10T02:01:54.374Z,99.90
2019-06-10T02:04:24.296Z,99.90
2019-06-10T02:06:54.255Z,99.90
2019-06-10T02:09:24.296Z,99.90
2019-06-10T02:11:54.375Z,99.90
2019-06-10T02:14:24.457Z,99.90
2019-06-10T02:16:54.855Z,99.90
2019-06-10T02:19:24.856Z,99.90
2019-06-10T02:21:54.778Z,99.90
2019-06-10T02:24:24.894Z,99.90
2019-06-10T02:26:54.936Z,99.90
2019-06-10T02:29:25.014Z,99.90
2019-06-10T02:31:55.096Z,99.90
2019-06-10T02:34:27.536Z,99.90
2019-06-10T02:36:58.457Z,99.90
2019-06-10T02:39:35.119Z,99.90
2019-06-10T02:42:04.548Z,99.90
2019-06-10T02:44:37.690Z,99.90
2019-06-10T02:47:05.938Z,99.90
2019-06-10T02:49:52.748Z,99.90
2019-06-10T02:52:22.802Z,99.90
2019-06-10T02:54:53.456Z,99.90
2019-06-10T02:57:29.619Z,99.90
2019-06-10T02:59:54.645Z,99.90
2019-06-10T03:02:31.403Z,99.90
2019-06-10T03:04:56.415Z,99.90
2019-06-10T03:07:29.295Z,99.90
2019-06-10T03:09:58.023Z,99.90
2019-06-10T03:12:28.243Z,99.90
2019-06-10T03:14:58.375Z,99.90
2019-06-10T03:17:28.383Z,99.90
2019-06-10T03:19:58.496Z,99.90
2019-06-10T03:22:28.585Z,99.90
2019-06-10T03:24:58.623Z,99.90
2019-06-10T03:27:28.575Z,99.90
2019-06-10T03:30:02.765Z,99.90
2019-06-10T03:32:39.434Z,99.90
2019-06-10T03:35:05.466Z,99.90
2019-06-10T03:37:34.415Z,99.90
2019-06-10T03:40:06.695Z,99.90
2019-06-10T03:42:36.699Z,99.90
2019-06-10T03:45:08.596Z,99.90
2019-06-10T03:47:38.578Z,99.90
2019-06-10T03:50:08.975Z,99.90
2019-06-10T03:52:38.976Z,99.90
2019-06-10T03:55:09.257Z,99.90
2019-06-10T03:57:39.308Z,99.90
2019-06-10T04:00:11.317Z,99.90
2019-06-10T04:02:42.976Z,99.90
2019-06-10T04:05:13.435Z,99.90
2019-06-10T04:07:44.654Z,99.90
2019-06-10T04:10:14.817Z,99.90
2019-06-10T04:12:44.735Z,99.90
2019-06-10T04:15:14.776Z,99.90
2019-06-10T04:17:44.698Z,99.90
2019-06-10T04:20:15.542Z,99.90
2019-06-10T04:22:45.695Z,99.90
2019-06-10T04:25:17.802Z,99.90
2019-06-10T04:27:48.776Z,99.90
2019-06-10T04:30:20.216Z,99.90
2019-06-10T04:32:52.761Z,99.90
2019-06-10T04:35:24.601Z,99.90
2019-06-10T04:37:54.576Z,99.90
2019-06-10T04:40:26.031Z,99.90
2019-06-10T04:42:56.256Z,99.90
2019-06-10T04:45:27.630Z,99.90
2019-06-10T04:47:57.973Z,99.90
2019-06-10T04:50:39.070Z,99.90
2019-06-10T04:52:59.575Z,99.90
2019-06-10T04:55:29.620Z,99.90
2019-06-10T04:57:59.535Z,99.90
2019-06-10T05:00:30.330Z,99.90
2019-06-10T05:03:02.870Z,99.90
2019-06-10T05:05:32.964Z,99.90
2019-06-10T05:08:03.103Z,99.90
2019-06-10T05:10:33.359Z,99.90
2019-06-10T05:13:03.456Z,99.90
2019-06-10T05:15:35.031Z,99.90
2019-06-10T05:18:05.255Z,99.90
2019-06-10T05:20:51.124Z,99.90
2019-06-10T05:23:06.855Z,99.90
2019-06-10T05:25:36.935Z,99.90
2019-06-10T05:28:07.020Z,99.90
2019-06-10T05:30:37.096Z,99.90
2019-06-10T05:33:07.135Z,99.90
2019-06-10T05:35:38.375Z,99.90
2019-06-10T05:38:08.376Z,99.90
2019-06-10T05:40:38.415Z,99.90
2019-06-10T05:43:08.457Z,99.90
2019-06-10T05:45:38.496Z,99.90
2019-06-10T05:48:08.455Z,99.90
2019-06-10T05:50:38.535Z,99.90
2019-06-10T05:53:08.656Z,99.90
2019-06-10T05:55:38.653Z,99.90
2019-06-10T05:58:08.665Z,99.90
2019-06-10T06:00:38.658Z,99.90
2019-06-10T06:03:08.736Z,99.90
2019-06-10T06:05:38.658Z,99.90
2019-06-10T06:08:09.205Z,99.90
2019-06-10T06:10:39.295Z,99.90
2019-06-10T06:13:09.335Z,99.90
2019-06-10T06:15:39.419Z,99.90
2019-06-10T06:18:10.682Z,99.90
2019-06-10T06:20:43.495Z,99.90
2019-06-10T06:23:12.584Z,99.90
2019-06-10T06:25:46.340Z,99.90
2019-06-10T06:28:16.207Z,99.90
2019-06-10T06:30:45.854Z,99.90
2019-06-10T06:33:15.899Z,99.90
2019-06-10T06:35:46.839Z,99.90
2019-06-10T06:38:16.895Z,99.90
2019-06-10T06:40:47.147Z,99.90
2019-06-10T06:43:17.175Z,99.90
2019-06-10T06:45:47.298Z,99.90
2019-06-10T06:48:17.334Z,99.90
2019-06-10T06:51:01.984Z,99.90
2019-06-10T06:53:31.927Z,99.90
2019-06-10T06:55:55.762Z,99.90
2019-06-10T06:58:23.292Z,99.90
2019-06-10T07:01:05.183Z,99.90
2019-06-10T07:03:24.866Z,99.90
2019-06-10T07:05:54.936Z,99.90
2019-06-10T07:08:26.418Z,99.90
2019-06-10T07:10:59.374Z,99.90
2019-06-10T07:13:31.472Z,99.90
2019-06-10T07:16:02.929Z,99.90
2019-06-10T07:18:40.841Z,99.90
2019-06-10T07:21:05.778Z,99.90
2019-06-10T07:23:38.009Z,99.90
2019-06-10T07:26:07.496Z,99.90
2019-06-10T07:28:39.930Z,99.90
2019-06-10T07:31:20.870Z,99.90
2019-06-10T07:33:43.033Z,99.90
2019-06-10T07:36:13.129Z,99.90
2019-06-10T07:38:48.214Z,99.90
2019-06-10T07:41:15.140Z,99.90
2019-06-10T07:43:49.457Z,99.90
2019-06-10T07:46:16.735Z,99.90
2019-06-10T07:48:48.638Z,99.90
2019-06-10T07:51:18.376Z,99.90
2019-06-10T07:53:48.347Z,99.90
2019-06-10T07:56:18.380Z,99.90
2019-06-10T07:58:48.445Z,99.90
2019-06-10T08:01:18.463Z,99.90
2019-06-10T08:03:48.546Z,99.90
2019-06-10T08:06:18.457Z,99.90
2019-06-10T08:08:48.666Z,99.90
2019-06-10T08:11:18.774Z,99.90
2019-06-10T08:13:48.919Z,99.90
2019-06-10T08:16:18.935Z,99.90
2019-06-10T08:19:16.061Z,99.90
2019-06-10T08:21:22.927Z,99.90
2019-06-10T08:23:55.418Z,99.90
2019-06-10T08:26:26.413Z,99.90
2019-06-10T08:28:56.362Z,99.90
2019-06-10T08:31:26.295Z,99.90
2019-06-10T08:33:56.215Z,99.90
2019-06-10T08:36:26.535Z,99.90
2019-06-10T08:38:56.615Z,99.90
2019-06-10T08:41:26.656Z,99.90
2019-06-10T08:43:56.816Z,99.90
2019-06-10T08:46:26.813Z,99.90
2019-06-10T08:48:56.817Z,99.90
2019-06-10T08:51:26.855Z,99.90
2019-06-10T08:53:56.936Z,99.90
2019-06-10T08:56:27.016Z,99.90
2019-06-10T08:58:57.020Z,99.90
2019-06-10T09:01:26.998Z,99.90
2019-06-10T09:03:57.096Z,99.90
2019-06-10T09:06:27.013Z,99.90
2019-06-10T09:08:57.056Z,99.90
2019-06-10T09:11:27.147Z,99.90
2019-06-10T09:13:57.176Z,99.90
2019-06-10T09:16:27.258Z,99.90
2019-06-10T09:18:57.214Z,99.90
2019-06-10T09:21:27.294Z,99.90
2019-06-10T09:23:59.988Z,99.90
2019-06-10T09:26:28.935Z,99.90
2019-06-10T09:28:59.015Z,99.90
2019-06-10T09:31:29.014Z,99.90
2019-06-10T09:33:59.018Z,99.30
2019-06-10T09:36:29.020Z,99.90
2019-06-10T09:38:59.097Z,98.60
2019-06-10T09:41:39.366Z,99.80
2019-06-10T09:44:03.284Z,99.90
2019-06-10T09:46:34.819Z,99.90
2019-06-10T09:49:05.933Z,99.90
2019-06-10T09:51:35.976Z,99.90
2019-06-10T09:54:06.849Z,99.90
2019-06-10T09:56:38.297Z,99.90
2019-06-10T09:59:12.504Z,99.90
2019-06-10T10:01:47.035Z,99.90
2019-06-10T10:04:14.660Z,99.90
2019-06-10T10:06:48.967Z,99.90
2019-06-10T10:09:16.735Z,99.90
2019-06-10T10:11:48.774Z,99.90
2019-06-10T10:14:18.335Z,99.90
2019-06-10T10:16:53.748Z,99.60
2019-06-10T10:19:20.056Z,98.90
2019-06-10T10:21:56.044Z,99.90
2019-06-10T10:24:23.007Z,99.90
2019-06-10T10:26:57.364Z,99.90
2019-06-10T10:29:24.824Z,99.90
2019-06-10T10:31:54.905Z,99.90
2019-06-10T10:34:25.216Z,99.90
2019-06-10T10:36:57.237Z,98.90
2019-06-10T10:39:27.845Z,99.90
2019-06-10T10:41:57.900Z,99.90
2019-06-10T10:44:28.216Z,99.90
2019-06-10T10:46:58.266Z,99.90
2019-06-10T10:49:28.779Z,99.80
2019-06-10T10:51:58.734Z,99.90
2019-06-10T10:54:34.041Z,99.30
2019-06-10T10:57:02.686Z,99.90
2019-06-10T10:59:33.208Z,99.90
2019-06-10T11:02:03.376Z,99.90
2019-06-10T11:04:33.578Z,99.90
2019-06-10T11:07:03.777Z,99.90
2019-06-10T11:09:33.788Z,99.90
2019-06-10T11:12:04.345Z,99.90
2019-06-10T11:14:34.894Z,99.90
2019-06-10T11:17:04.855Z,99.60
2019-06-10T11:19:34.900Z,99.90
2019-06-10T11:22:04.976Z,99.90
2019-06-10T11:24:40.762Z,99.90
2019-06-10T11:27:06.534Z,99.90
2019-06-10T11:29:36.658Z,99.90
2019-06-10T11:32:06.896Z,99.90
2019-06-10T11:34:36.938Z,99.90
2019-06-10T11:37:06.937Z,99.50
2019-06-10T11:39:38.774Z,98.90
2019-06-10T11:42:08.577Z,99.10
2019-06-10T11:44:39.454Z,98.10
2019-06-10T11:47:09.653Z,99.80
2019-06-10T11:49:39.655Z,99.10
2019-06-10T11:52:09.695Z,98.10
2019-06-10T11:54:53.699Z,97.90
2019-06-10T11:57:12.550Z,99.10
2019-06-10T11:59:43.405Z,99.90
2019-06-10T12:02:14.214Z,98.90
2019-06-10T12:04:44.214Z,98.10
2019-06-10T12:07:14.216Z,98.50
2019-06-10T12:09:44.264Z,99.20
2019-06-10T12:12:14.301Z,98.70
2019-06-10T12:14:44.300Z,98.50
2019-06-10T12:17:31.281Z,98.30
2019-06-10T12:19:45.940Z,99.80
2019-06-10T12:22:16.436Z,96.00
2019-06-10T12:24:46.556Z,97.60
2019-06-10T12:27:16.589Z,96.10
2019-06-10T12:29:46.587Z,95.00
2019-06-10T12:32:16.616Z,95.10
2019-06-10T12:34:46.579Z,97.40
2019-06-10T12:37:16.904Z,96.70
2019-06-10T12:39:46.972Z,96.50
2019-06-10T12:42:17.018Z,96.50
2019-06-10T12:44:47.139Z,96.30
2019-06-10T12:47:17.382Z,96.60
2019-06-10T12:49:47.421Z,96.80
2019-06-10T12:52:17.616Z,97.10
2019-06-10T12:54:47.658Z,95.50
2019-06-10T12:57:18.164Z,95.00
2019-06-10T12:59:48.260Z,94.10
2019-06-10T13:02:23.328Z,95.80
2019-06-10T13:04:52.152Z,96.00
2019-06-10T13:07:24.215Z,96.90
2019-06-10T13:09:57.697Z,97.40
2019-06-10T13:12:27.895Z,96.10
2019-06-10T13:14:57.978Z,94.60
2019-06-10T13:17:27.984Z,96.60
2019-06-10T13:19:59.152Z,95.70
2019-06-10T13:22:29.375Z,94.00
2019-06-10T13:25:00.630Z,94.40
2019-06-10T13:27:31.893Z,94.70
2019-06-10T13:30:02.697Z,94.90
2019-06-10T13:32:34.018Z,94.00
2019-06-10T13:35:06.323Z,93.30
2019-06-10T13:37:36.976Z,93.60
2019-06-10T13:40:09.976Z,95.00
2019-06-10T13:42:39.095Z,93.60
2019-06-10T13:45:13.294Z,92.80
2019-06-10T13:47:43.820Z,93.50
2019-06-10T13:50:14.936Z,93.30
2019-06-10T13:52:44.946Z,94.20
2019-06-10T13:55:15.542Z,93.30
2019-06-10T13:57:45.608Z,94.20
2019-06-10T14:00:16.298Z,92.80
2019-06-10T14:02:46.334Z,93.40
2019-06-10T14:05:18.454Z,91.70
2019-06-10T14:07:48.704Z,91.50
2019-06-10T14:10:19.320Z,91.60
2019-06-10T14:12:49.496Z,92.20
2019-06-10T14:15:22.431Z,90.50
2019-06-10T14:17:52.744Z,92.00
2019-06-10T14:20:23.193Z,90.90
2019-06-10T14:22:53.214Z,92.60
2019-06-10T14:25:23.480Z,93.10
2019-06-10T14:27:54.015Z,92.30
2019-06-10T14:30:24.015Z,91.40
2019-06-10T14:32:54.096Z,91.90
2019-06-10T14:35:26.830Z,91.50
2019-06-10T14:37:55.739Z,92.10
2019-06-10T14:40:25.777Z,93.00
2019-06-10T14:42:55.907Z,93.80
2019-06-10T14:45:25.936Z,92.20
2019-06-10T14:47:58.728Z,92.30
2019-06-10T14:50:27.666Z,91.90
2019-06-10T14:52:57.855Z,90.30
2019-06-10T14:55:27.860Z,89.70
2019-06-10T14:57:57.936Z,88.30
2019-06-10T15:00:28.098Z,90.00
2019-06-10T15:03:01.618Z,90.00
2019-06-10T15:05:29.615Z,89.90
2019-06-10T15:07:59.577Z,88.30
2019-06-10T15:10:32.144Z,90.80
2019-06-10T15:13:02.225Z,88.30
2019-06-10T15:15:33.043Z,90.90
2019-06-10T15:18:03.239Z,86.40
2019-06-10T15:20:33.343Z,87.60
2019-06-10T15:23:03.343Z,86.00
2019-06-10T15:25:49.219Z,90.60
2019-06-10T15:28:05.187Z,87.20
2019-06-10T15:30:35.270Z,83.50
2019-06-10T15:33:05.386Z,87.50
2019-06-10T15:35:35.464Z,90.10
2019-06-10T15:38:05.574Z,88.70
2019-06-10T15:40:35.658Z,90.20
2019-06-10T15:43:06.404Z,89.90
2019-06-10T15:45:36.575Z,82.70
2019-06-10T15:48:06.855Z,86.30
2019-06-10T15:50:36.856Z,90.20
2019-06-10T15:53:06.935Z,88.20
2019-06-10T15:56:05.299Z,90.10
2019-06-10T15:58:08.657Z,86.40
2019-06-10T16:00:38.656Z,89.00
2019-06-10T16:03:09.022Z,92.10
2019-06-10T16:05:38.976Z,92.70
2019-06-10T16:08:09.175Z,94.10
2019-06-10T16:10:39.180Z,93.30
2019-06-10T16:13:09.216Z,94.10
2019-06-10T16:15:39.215Z,94.20
2019-06-10T16:18:09.296Z,95.10
2019-06-10T16:20:39.335Z,95.00
2019-06-10T16:23:09.419Z,94.80
2019-06-10T16:25:39.379Z,95.90
2019-06-10T16:28:09.541Z,95.50
2019-06-10T16:30:39.630Z,95.50
2019-06-10T16:33:09.697Z,96.10
2019-06-10T16:35:39.743Z,96.20
2019-06-10T16:38:09.777Z,96.50
2019-06-10T16:40:39.820Z,96.80
2019-06-10T16:43:09.890Z,97.20
2019-06-10T16:45:39.821Z,96.80
2019-06-10T16:48:09.899Z,97.60
2019-06-10T16:50:42.463Z,98.70
2019-06-10T16:53:13.685Z,99.10
2019-06-10T16:55:43.136Z,99.10
2019-06-10T16:58:14.184Z,99.00
2019-06-10T17:00:44.515Z,99.60
2019-06-10T17:03:14.617Z,99.90
2019-06-10T17:05:44.817Z,99.90
2019-06-10T17:08:14.734Z,99.90
2019-06-10T17:10:44.779Z,99.90
2019-06-10T17:13:16.375Z,99.90
2019-06-10T17:15:46.466Z,99.90
2019-06-10T17:18:16.509Z,99.90
2019-06-10T17:20:46.575Z,99.90
2019-06-10T17:23:28.039Z,99.90
2019-06-10T17:25:58.418Z,99.90
2019-06-10T17:28:32.888Z,99.90
2019-06-10T17:31:03.460Z,99.90
2019-06-10T17:33:35.465Z,99.90
2019-06-10T17:36:03.942Z,99.90
2019-06-10T17:38:34.054Z,99.90
2019-06-10T17:41:04.178Z,99.90
2019-06-10T17:43:34.608Z,99.90
2019-06-10T17:46:05.056Z,99.90
2019-06-10T17:48:35.134Z,99.90
2019-06-10T17:51:05.259Z,99.90
2019-06-10T17:53:35.405Z,99.90
2019-06-10T17:56:05.455Z,99.90
2019-06-10T17:58:50.005Z,99.90
2019-06-10T18:01:07.072Z,99.90
2019-06-10T18:03:39.865Z,99.90
2019-06-10T18:06:08.654Z,99.90
2019-06-10T18:08:40.668Z,99.90
2019-06-10T18:11:12.733Z,99.90
2019-06-10T18:13:44.095Z,99.90
2019-06-10T18:16:14.058Z,99.90
2019-06-10T18:18:44.192Z,99.90
2019-06-10T18:21:14.175Z,99.90
2019-06-10T18:23:44.255Z,99.90
2019-06-10T18:26:14.375Z,99.90
2019-06-10T18:29:00.428Z,99.90
2019-06-10T18:31:18.538Z,99.90
2019-06-10T18:33:48.494Z,99.90
2019-06-10T18:36:18.615Z,99.90
2019-06-10T18:38:48.656Z,99.90
2019-06-10T18:41:18.778Z,99.90
2019-06-10T18:43:48.736Z,99.90
2019-06-10T18:46:18.935Z,99.90
2019-06-10T18:48:48.978Z,99.90
2019-06-10T18:51:19.056Z,99.90
2019-06-10T18:53:49.055Z,99.90
2019-06-10T18:56:19.014Z,99.90
2019-06-10T18:58:48.975Z,99.90
2019-06-10T19:01:19.175Z,99.90
2019-06-10T19:03:49.453Z,99.90
2019-06-10T19:06:19.776Z,99.90
2019-06-10T19:08:52.924Z,99.90
2019-06-10T19:11:22.463Z,99.90
2019-06-10T19:13:52.959Z,99.90
2019-06-10T19:16:23.559Z,99.90
2019-06-10T19:18:53.787Z,99.90
2019-06-10T19:21:23.897Z,99.90
2019-06-10T19:23:54.067Z,99.90
2019-06-10T19:26:24.134Z,99.90
2019-06-10T19:28:57.289Z,99.90
2019-06-10T19:31:25.784Z,99.90
2019-06-10T19:33:55.733Z,99.90
2019-06-10T19:36:25.738Z,99.90
2019-06-10T19:38:55.773Z,99.90
2019-06-10T19:41:25.935Z,99.90
2019-06-10T19:43:55.934Z,99.90
2019-06-10T19:46:25.893Z,99.90
2019-06-10T19:49:02.675Z,99.90
2019-06-10T19:51:36.187Z,99.90
2019-06-10T19:54:08.213Z,99.90
2019-06-10T19:56:39.610Z,99.90
2019-06-10T19:59:12.707Z,99.90
2019-06-10T20:01:46.734Z,99.90
2019-06-10T20:04:17.867Z,99.90
2019-06-10T20:06:50.348Z,99.90
2019-06-10T20:09:18.857Z,99.90
2019-06-10T20:11:49.026Z,99.90
2019-06-10T20:14:23.637Z,99.90
2019-06-10T20:16:55.146Z,99.90
2019-06-10T20:19:25.176Z,99.90
2019-06-10T20:21:55.351Z,99.90
2019-06-10T20:24:25.354Z,99.90
2019-06-10T20:26:55.507Z,99.90
2019-06-10T20:29:25.487Z,99.90
2019-06-10T20:31:55.509Z,99.90
2019-06-10T20:34:26.014Z,99.90
2019-06-10T20:36:56.176Z,99.90
2019-06-10T20:39:29.228Z,99.90
2019-06-10T20:41:58.132Z,99.90
2019-06-10T20:44:28.250Z,99.90
2019-06-10T20:46:58.255Z,99.90
2019-06-10T20:49:28.295Z,99.90
2019-06-10T20:52:08.065Z,99.90
2019-06-10T20:54:32.146Z,99.90
2019-06-10T20:57:04.068Z,99.90
2019-06-10T20:59:33.286Z,99.90
2019-06-10T21:02:03.465Z,99.90
2019-06-10T21:04:33.418Z,99.90
2019-06-10T21:07:04.175Z,99.90
2019-06-10T21:09:36.459Z,99.90
2019-06-10T21:12:06.455Z,99.90
2019-06-10T21:14:36.415Z,99.90
2019-06-10T21:17:06.575Z,99.90
2019-06-10T21:19:36.535Z,99.90
2019-06-10T21:22:06.626Z,99.90
2019-06-10T21:24:36.854Z,99.90
2019-06-10T21:27:07.136Z,99.90
2019-06-10T21:29:37.135Z,99.90
2019-06-10T21:32:07.136Z,99.90
2019-06-10T21:34:37.215Z,99.90
2019-06-10T21:37:07.176Z,99.90
2019-06-10T21:39:37.254Z,99.90
2019-06-10T21:42:07.215Z,99.90
2019-06-10T21:44:37.303Z,99.90
2019-06-10T21:47:07.294Z,99.90
2019-06-10T21:49:37.260Z,99.90
2019-06-10T21:52:07.334Z,99.90
2019-06-10T21:54:37.295Z,99.90
2019-06-10T21:57:07.458Z,99.90
2019-06-10T21:59:37.454Z,99.90
2019-06-10T22:02:07.414Z,99.90
2019-06-10T22:04:37.497Z,99.90
2019-06-10T22:07:07.496Z,99.90
2019-06-10T22:09:38.538Z,99.90
2019-06-10T22:12:08.575Z,99.90
2019-06-10T22:14:38.614Z,99.90
2019-06-10T22:17:08.626Z,99.90
2019-06-10T22:19:38.615Z,99.90
2019-06-10T22:22:08.699Z,99.90
2019-06-10T22:24:38.693Z,99.90
2019-06-10T22:27:08.776Z,99.90
2019-06-10T22:29:38.866Z,99.90
2019-06-10T22:32:08.895Z,99.90
2019-06-10T22:34:38.935Z,99.90
2019-06-10T22:37:36.975Z,99.90
2019-06-10T22:40:07.656Z,99.90
2019-06-10T22:42:37.621Z,99.90
2019-06-10T22:45:08.574Z,99.90
2019-06-10T22:47:38.576Z,99.90
2019-06-10T22:50:12.584Z,99.90
2019-06-10T22:52:42.669Z,99.90
2019-06-10T22:55:13.019Z,99.90
2019-06-10T22:57:43.925Z,99.90
2019-06-10T23:00:16.179Z,99.90
2019-06-10T23:02:46.215Z,99.90
2019-06-10T23:05:17.379Z,99.90
2019-06-10T23:07:48.240Z,99.90
2019-06-10T23:10:18.576Z,99.90
2019-06-10T23:12:48.621Z,99.90
2019-06-10T23:15:18.894Z,99.90
2019-06-10T23:17:49.027Z,99.90
2019-06-10T23:20:19.097Z,99.90
2019-06-10T23:22:49.294Z,99.90
2019-06-10T23:25:19.349Z,99.90
2019-06-10T23:27:50.072Z,99.90
2019-06-10T23:30:22.210Z,99.90
2019-06-10T23:32:54.419Z,99.90
2019-06-10T23:35:23.374Z,99.90
2019-06-10T23:37:56.471Z,99.90
2019-06-10T23:40:24.975Z,99.90
2019-06-10T23:42:54.974Z,99.90
2019-06-10T23:45:24.973Z,99.90
2019-06-10T23:47:56.508Z,99.90
2019-06-10T23:50:26.614Z,99.90
2019-06-10T23:53:02.091Z,99.90
2019-06-10T23:55:28.095Z,99.90
2019-06-10T23:57:58.375Z,99.90
